createdAt,value
2023-06-17T00:02:38.601Z,4.10
2023-06-17T00:05:32.789Z,3.78
2023-06-17T00:08:24.797Z,3.78
2023-06-17T00:11:11.504Z,3.55
2023-06-17T00:14:04.872Z,3.85
2023-06-17T00:16:50.885Z,3.83
2023-06-17T00:19:44.777Z,4.00
2023-06-17T00:22:37.790Z,4.60
2023-06-17T00:25:29.859Z,4.00
2023-06-17T00:28:21.804Z,3.85
2023-06-17T00:31:13.815Z,4.07
2023-06-17T00:33:59.525Z,3.83
2023-06-17T00:36:51.884Z,4.15
2023-06-17T00:39:37.333Z,4.03
2023-06-17T00:42:28.868Z,4.00
2023-06-17T00:45:14.575Z,4.18
2023-06-17T00:48:06.839Z,4.13
2023-06-17T00:50:53.219Z,3.97
2023-06-17T00:53:44.930Z,4.22
2023-06-17T00:56:32.829Z,4.20
2023-06-17T00:59:24.874Z,3.92
2023-06-17T01:02:12.051Z,4.17
2023-06-17T01:05:04.916Z,3.97
2023-06-17T01:08:10.915Z,4.47
2023-06-17T01:11:13.871Z,4.15
2023-06-17T01:14:06.905Z,4.05
2023-06-17T01:17:01.960Z,3.92
2023-06-17T01:19:55.972Z,4.20
2023-06-17T01:22:42.704Z,4.55
2023-06-17T01:25:39.055Z,3.88
2023-06-17T01:28:32.005Z,4.40
2023-06-17T01:31:20.685Z,4.20
2023-06-17T01:34:13.989Z,4.90
2023-06-17T01:37:06.953Z,4.28
2023-06-17T01:40:03.958Z,4.55
2023-06-17T01:42:59.933Z,4.38
2023-06-17T01:45:47.520Z,4.57
2023-06-17T01:48:39.955Z,4.53
2023-06-17T01:51:25.995Z,4.97
2023-06-17T01:54:17.941Z,4.90
2023-06-17T01:57:03.523Z,4.88
2023-06-17T01:59:56.043Z,5.13
2023-06-17T02:02:48.103Z,4.85
2023-06-17T02:05:40.054Z,5.03
2023-06-17T02:08:32.004Z,5.35
2023-06-17T02:11:24.137Z,5.35
2023-06-17T02:14:10.052Z,4.82
2023-06-17T02:17:04.082Z,5.05
2023-06-17T02:19:56.041Z,4.80
2023-06-17T02:22:41.367Z,5.35
2023-06-17T02:25:33.091Z,5.40
2023-06-17T02:28:18.836Z,5.70
2023-06-17T02:31:11.081Z,5.75
2023-06-17T02:34:04.039Z,5.85
2023-06-17T02:36:57.001Z,5.50
2023-06-17T02:39:49.085Z,5.35
2023-06-17T02:42:41.071Z,5.30
2023-06-17T02:45:33.075Z,5.80
2023-06-17T02:48:25.048Z,5.38
2023-06-17T02:51:17.112Z,5.93
2023-06-17T02:54:02.900Z,6.00
2023-06-17T02:56:55.041Z,6.32
2023-06-17T02:59:47.108Z,5.78
2023-06-17T03:02:32.500Z,5.80
2023-06-17T03:05:27.106Z,5.60
2023-06-17T03:08:12.447Z,5.88
2023-06-17T03:11:04.121Z,6.10
2023-06-17T03:13:49.703Z,4.93
2023-06-17T03:16:42.160Z,5.78
2023-06-17T03:19:28.350Z,5.68
2023-06-17T03:22:20.146Z,6.25
2023-06-17T03:25:06.668Z,5.75
2023-06-17T03:27:58.137Z,5.88
2023-06-17T03:30:43.929Z,5.55
2023-06-17T03:33:36.128Z,5.88
2023-06-17T03:36:38.176Z,6.00
2023-06-17T03:39:23.926Z,5.93
2023-06-17T03:42:16.207Z,6.63
2023-06-17T03:45:01.880Z,6.20
2023-06-17T03:47:54.259Z,6.50
2023-06-17T03:50:39.838Z,6.82
2023-06-17T03:53:32.180Z,6.90
2023-06-17T03:56:17.713Z,6.70
2023-06-17T03:59:10.229Z,8.00
2023-06-17T04:01:55.784Z,8.27
2023-06-17T04:04:48.192Z,8.13
2023-06-17T04:07:34.304Z,7.97
2023-06-17T04:10:26.529Z,7.93
2023-06-17T04:13:18.184Z,9.25
2023-06-17T04:16:10.244Z,9.88
2023-06-17T04:19:03.498Z,9.70
2023-06-17T04:21:55.229Z,10.48
2023-06-17T04:24:47.198Z,10.65
2023-06-17T04:27:33.053Z,11.00
2023-06-17T04:30:25.271Z,10.57
2023-06-17T04:33:13.046Z,10.82
2023-06-17T04:36:05.223Z,11.30
2023-06-17T04:38:57.195Z,10.32
2023-06-17T04:41:53.307Z,11.10
2023-06-17T04:44:45.204Z,11.25
2023-06-17T04:47:30.743Z,11.68
2023-06-17T04:50:25.243Z,11.30
2023-06-17T04:53:11.408Z,12.82
2023-06-17T04:56:04.244Z,12.02
2023-06-17T04:58:49.734Z,11.75
2023-06-17T05:01:42.274Z,12.50
2023-06-17T05:04:27.893Z,12.40
2023-06-17T05:07:20.239Z,12.02
2023-06-17T05:10:06.535Z,12.38
2023-06-17T05:12:58.332Z,12.02
2023-06-17T05:15:43.734Z,12.40
2023-06-17T05:18:35.273Z,12.23
2023-06-17T05:21:24.118Z,11.23
2023-06-17T05:24:16.312Z,11.00
2023-06-17T05:29:53.289Z,11.27
2023-06-17T05:32:38.692Z,9.82
2023-06-17T05:35:31.295Z,9.70
2023-06-17T05:38:16.955Z,8.95
2023-06-17T05:41:09.294Z,8.93
2023-06-17T05:44:01.559Z,8.63
2023-06-17T05:49:39.375Z,6.88
2023-06-17T05:52:32.354Z,7.30
2023-06-17T05:55:17.666Z,6.88
2023-06-17T05:58:10.396Z,6.35
2023-06-17T06:00:55.970Z,7.13
2023-06-17T06:03:47.413Z,7.25
2023-06-17T06:06:34.981Z,8.70
2023-06-17T06:09:27.614Z,6.93
2023-06-17T06:12:13.737Z,6.15
2023-06-17T06:15:06.344Z,6.15
2023-06-17T06:17:58.416Z,5.40
2023-06-17T06:20:43.728Z,5.35
2023-06-17T06:23:36.354Z,6.00
2023-06-17T06:29:14.816Z,6.38
2023-06-17T06:32:06.442Z,4.70
2023-06-17T06:34:51.737Z,4.38
2023-06-17T06:37:43.412Z,5.28
2023-06-17T06:40:35.438Z,5.90
2023-06-17T06:43:27.378Z,5.57
2023-06-17T06:46:15.289Z,5.50
2023-06-17T06:49:08.472Z,4.40
2023-06-17T06:51:53.840Z,5.90
2023-06-17T06:54:45.394Z,4.97
2023-06-17T06:57:31.009Z,4.57
2023-06-17T07:00:23.684Z,4.53
2023-06-17T07:03:09.501Z,4.13
2023-06-17T07:06:01.474Z,4.55
2023-06-17T07:08:46.594Z,3.92
2023-06-17T07:11:38.456Z,4.20
2023-06-17T07:14:36.484Z,3.70
2023-06-17T07:17:28.670Z,4.22
2023-06-17T07:20:20.589Z,3.85
2023-06-17T07:23:12.501Z,4.82
2023-06-17T07:25:57.899Z,3.80
2023-06-17T07:28:50.484Z,3.72
2023-06-17T07:34:27.588Z,3.97
2023-06-17T07:37:13.323Z,4.32
2023-06-17T07:40:05.600Z,4.03
2023-06-17T07:42:57.693Z,3.42
2023-06-17T07:45:43.497Z,4.95
2023-06-17T07:48:35.674Z,4.07
2023-06-17T07:51:27.561Z,4.50
2023-06-17T07:54:12.764Z,4.33
2023-06-17T07:57:04.697Z,4.60
2023-06-17T07:59:50.172Z,4.17
2023-06-17T08:02:41.711Z,3.25
2023-06-17T08:05:27.504Z,4.20
2023-06-17T08:08:19.485Z,3.67
2023-06-17T08:11:05.182Z,3.40
2023-06-17T08:13:57.561Z,3.20
2023-06-17T08:16:53.632Z,3.28
2023-06-17T08:19:45.545Z,3.03
2023-06-17T08:22:38.559Z,3.92
2023-06-17T08:28:16.600Z,3.70
2023-06-17T08:31:08.611Z,3.85
2023-06-17T08:33:53.858Z,3.63
2023-06-17T08:36:54.648Z,3.40
2023-06-17T08:39:41.011Z,3.40
2023-06-17T08:42:34.602Z,3.40
2023-06-17T08:45:28.768Z,3.20
2023-06-17T08:48:13.914Z,4.50
2023-06-17T08:51:07.637Z,3.30
2023-06-17T08:54:00.617Z,3.97
2023-06-17T08:56:46.370Z,4.05
2023-06-17T08:59:38.616Z,3.88
2023-06-17T09:02:25.627Z,3.90
2023-06-17T09:05:17.832Z,3.95
2023-06-17T09:08:10.642Z,3.53
2023-06-17T09:11:12.639Z,3.30
2023-06-17T09:14:00.616Z,4.20
2023-06-17T09:16:52.748Z,4.28
2023-06-17T09:19:47.679Z,3.50
2023-06-17T09:22:33.175Z,3.70
2023-06-17T09:25:26.701Z,3.60
2023-06-17T09:28:17.308Z,3.70
2023-06-17T09:31:13.642Z,3.38
2023-06-17T09:34:03.549Z,3.60
2023-06-17T09:37:08.664Z,3.92
2023-06-17T09:39:54.268Z,3.95
2023-06-17T09:42:46.841Z,3.63
2023-06-17T09:45:39.723Z,3.85
2023-06-17T09:48:37.744Z,4.03
2023-06-17T09:51:24.588Z,4.20
2023-06-17T09:54:17.724Z,4.10
2023-06-17T09:57:03.721Z,3.90
2023-06-17T09:59:57.688Z,3.83
2023-06-17T10:02:49.783Z,4.47
2023-06-17T10:05:35.160Z,4.10
2023-06-17T10:08:29.096Z,7.65
2023-06-17T10:11:18.652Z,5.65
2023-06-17T10:14:25.742Z,4.53
2023-06-17T10:17:18.782Z,4.60
2023-06-17T10:20:13.030Z,4.13
2023-06-17T10:23:05.814Z,3.65
2023-06-17T10:25:59.754Z,4.43
2023-06-17T10:29:00.830Z,4.25
2023-06-17T10:31:46.293Z,4.50
2023-06-17T10:34:37.772Z,4.15
2023-06-17T10:37:28.282Z,4.78
2023-06-17T10:40:34.824Z,4.45
2023-06-17T10:43:21.944Z,4.10
2023-06-17T10:46:15.943Z,3.60
2023-06-17T10:49:01.675Z,3.60
2023-06-17T10:51:59.339Z,3.70
2023-06-17T10:54:53.840Z,4.60
2023-06-17T10:57:39.333Z,4.40
2023-06-17T11:00:30.788Z,4.20
2023-06-17T11:03:17.940Z,4.22
2023-06-17T11:06:11.960Z,3.85
2023-06-17T11:08:57.409Z,3.67
2023-06-17T11:11:49.868Z,4.22
2023-06-17T11:14:42.962Z,4.60
2023-06-17T11:17:28.539Z,3.92
2023-06-17T11:20:21.278Z,4.20
2023-06-17T11:23:06.882Z,3.75
2023-06-17T11:26:00.913Z,4.55
2023-06-17T11:28:54.861Z,3.83
2023-06-17T11:31:47.923Z,3.17
2023-06-17T11:34:33.978Z,2.90
2023-06-17T11:37:26.884Z,2.90
2023-06-17T11:40:13.730Z,3.90
2023-06-17T11:43:05.856Z,3.88
2023-06-17T11:45:52.092Z,3.40
2023-06-17T11:48:43.968Z,3.45
2023-06-17T11:51:44.729Z,3.20
2023-06-17T11:54:30.482Z,3.03
2023-06-17T11:57:30.923Z,3.17
2023-06-17T12:00:23.205Z,5.10
2023-06-17T12:03:09.013Z,4.07
2023-06-17T12:06:00.914Z,3.10
2023-06-17T12:08:56.623Z,3.47
2023-06-17T12:11:51.148Z,3.25
2023-06-17T12:14:44.946Z,3.30
2023-06-17T12:17:43.912Z,2.80
2023-06-17T12:20:36.002Z,3.50
2023-06-17T12:26:14.149Z,3.60
2023-06-17T12:29:19.693Z,3.90
2023-06-17T12:32:10.463Z,3.17
2023-06-17T12:35:01.940Z,3.30
2023-06-17T12:37:55.951Z,3.00
2023-06-17T12:40:48.153Z,4.03
2023-06-17T12:46:32.144Z,3.45
2023-06-17T12:49:24.004Z,3.97
2023-06-17T12:52:10.823Z,3.47
2023-06-17T12:55:06.940Z,3.35
2023-06-17T12:57:52.476Z,3.60
2023-06-17T13:00:45.028Z,3.38
2023-06-17T13:03:37.060Z,3.30
2023-06-17T13:06:22.522Z,3.78
2023-06-17T13:09:15.220Z,3.70
2023-06-17T13:12:00.718Z,3.70
2023-06-17T13:14:59.006Z,2.67
2023-06-17T13:17:51.196Z,3.30
2023-06-17T13:20:43.073Z,3.20
2023-06-17T13:26:34.039Z,4.57
2023-06-17T13:29:29.042Z,3.88
2023-06-17T13:32:15.610Z,3.75
2023-06-17T13:35:11.072Z,3.17
2023-06-17T13:37:58.789Z,3.08
2023-06-17T13:40:51.025Z,3.42
2023-06-17T13:43:44.114Z,3.47
2023-06-17T13:46:36.166Z,3.00
2023-06-17T13:49:29.108Z,3.38
2023-06-17T13:52:24.128Z,2.80
2023-06-17T13:55:09.583Z,2.60
2023-06-17T13:58:01.133Z,2.28
2023-06-17T14:00:46.648Z,2.42
2023-06-17T14:03:39.223Z,2.60
2023-06-17T14:06:26.405Z,2.30
2023-06-17T14:09:18.086Z,2.17
2023-06-17T14:15:02.227Z,3.35
2023-06-17T14:17:54.276Z,3.42
2023-06-17T14:20:46.176Z,2.80
2023-06-17T14:26:23.176Z,2.20
2023-06-17T14:29:16.147Z,2.00
2023-06-17T14:32:01.535Z,2.40
2023-06-17T14:34:54.141Z,1.90
2023-06-17T14:37:47.170Z,1.92
2023-06-17T14:40:39.188Z,1.92
2023-06-17T14:43:24.563Z,1.92
2023-06-17T14:46:17.332Z,1.80
2023-06-17T14:49:02.744Z,3.15
2023-06-17T14:51:56.140Z,2.67
2023-06-17T14:54:42.204Z,4.35
2023-06-17T14:57:34.204Z,3.10
2023-06-17T15:00:27.178Z,2.72
2023-06-17T15:03:12.661Z,2.17
2023-06-17T15:06:05.257Z,2.13
2023-06-17T15:08:51.401Z,2.00
2023-06-17T15:11:43.166Z,1.77
2023-06-17T15:14:33.311Z,1.50
2023-06-17T15:17:25.257Z,1.92
2023-06-17T15:20:11.356Z,1.92
2023-06-17T15:23:03.256Z,2.10
2023-06-17T15:25:49.040Z,1.80
2023-06-17T15:28:41.192Z,1.90
2023-06-17T15:34:18.250Z,2.10
2023-06-17T15:39:56.339Z,2.10
2023-06-17T15:42:44.430Z,2.58
2023-06-17T15:45:37.322Z,2.40
2023-06-17T15:48:29.254Z,2.20
2023-06-17T15:51:14.793Z,2.30
2023-06-17T15:54:06.229Z,2.47
2023-06-17T15:57:05.260Z,2.50
2023-06-17T16:00:07.246Z,2.60
2023-06-17T16:05:51.325Z,2.45
2023-06-17T16:08:44.421Z,3.03
2023-06-17T16:11:30.547Z,2.88
2023-06-17T16:14:22.514Z,2.55
2023-06-17T16:20:00.826Z,2.88
2023-06-17T16:22:53.321Z,2.75
2023-06-17T16:25:54.269Z,2.75
2023-06-17T16:28:48.368Z,3.08
2023-06-17T16:31:33.895Z,2.83
2023-06-17T16:34:26.374Z,4.70
2023-06-17T16:37:19.390Z,4.07
2023-06-17T16:40:12.356Z,4.50
2023-06-17T16:42:59.747Z,4.45
2023-06-17T16:45:52.425Z,4.00
2023-06-17T16:48:44.341Z,3.42
2023-06-17T16:51:37.347Z,3.30
2023-06-17T16:54:22.623Z,2.90
2023-06-17T16:57:17.381Z,2.83
2023-06-17T17:00:05.831Z,2.95
2023-06-17T17:02:58.393Z,3.50
2023-06-17T17:05:44.351Z,3.15
2023-06-17T17:08:38.422Z,2.67
2023-06-17T17:11:30.488Z,2.72
2023-06-17T17:14:15.950Z,2.83
2023-06-17T17:17:07.458Z,2.63
2023-06-17T17:20:01.488Z,2.60
2023-06-17T17:22:48.119Z,2.72
2023-06-17T17:25:43.470Z,2.97
2023-06-17T17:28:29.294Z,2.95
2023-06-17T17:31:21.419Z,2.85
2023-06-17T17:34:07.325Z,3.00
2023-06-17T17:37:00.443Z,2.78
2023-06-17T17:39:46.618Z,3.28
2023-06-17T17:42:38.491Z,3.10
2023-06-17T17:45:30.461Z,4.03
2023-06-17T17:48:23.393Z,3.28
2023-06-17T17:51:15.451Z,3.30
2023-06-17T17:54:00.910Z,2.90
2023-06-17T17:56:53.527Z,3.13
2023-06-17T17:59:39.992Z,3.47
2023-06-17T18:02:32.574Z,4.20
2023-06-17T18:05:18.592Z,4.20
2023-06-17T18:08:10.475Z,4.43
2023-06-17T18:10:56.074Z,4.57
2023-06-17T18:13:47.526Z,4.35
2023-06-17T18:16:39.562Z,4.30
2023-06-17T18:22:16.757Z,4.50
2023-06-17T18:25:08.474Z,4.40
2023-06-17T18:27:53.912Z,4.93
2023-06-17T18:30:47.532Z,4.43
2023-06-17T18:33:33.350Z,3.90
2023-06-17T18:36:25.532Z,3.95
2023-06-17T18:39:17.540Z,4.00
2023-06-17T18:42:09.648Z,4.00
2023-06-17T18:45:01.529Z,4.20
2023-06-17T18:50:39.545Z,4.53
2023-06-17T18:53:24.860Z,4.40
2023-06-17T18:56:16.561Z,4.15
2023-06-17T19:02:01.859Z,4.00
2023-06-17T19:04:53.540Z,3.78
2023-06-17T19:07:48.591Z,3.95
2023-06-17T19:10:40.578Z,4.43
2023-06-17T19:13:32.667Z,4.38
2023-06-17T19:16:26.687Z,4.20
2023-06-17T19:19:12.483Z,4.13
2023-06-17T19:22:04.614Z,4.40
2023-06-17T19:24:50.263Z,4.25
2023-06-17T19:27:41.640Z,4.60
2023-06-17T19:30:33.569Z,4.00
2023-06-17T19:33:20.531Z,4.22
2023-06-17T19:36:13.603Z,4.55
2023-06-17T19:38:59.069Z,4.90
2023-06-17T19:41:51.615Z,4.50
2023-06-17T19:44:49.635Z,5.03
2023-06-17T19:47:34.778Z,4.10
2023-06-17T19:50:26.705Z,4.20
2023-06-17T19:53:12.211Z,4.18
2023-06-17T19:56:04.617Z,4.50
2023-06-17T19:58:49.838Z,4.35
2023-06-17T20:01:41.729Z,4.40
2023-06-17T20:04:27.304Z,4.38
2023-06-17T20:07:19.669Z,4.63
2023-06-17T20:10:12.624Z,4.53
2023-06-17T20:12:59.039Z,4.40
2023-06-17T20:15:51.704Z,4.45
2023-06-17T20:18:43.697Z,4.72
2023-06-17T20:21:35.705Z,4.63
2023-06-17T20:24:22.581Z,4.57
2023-06-17T20:27:14.741Z,4.20
2023-06-17T20:30:06.694Z,4.78
2023-06-17T20:35:44.756Z,4.85
2023-06-17T20:38:30.078Z,4.88
2023-06-17T20:41:21.675Z,4.90
2023-06-17T20:44:13.780Z,4.63
2023-06-17T20:47:06.795Z,4.63
2023-06-17T20:49:58.787Z,4.10
2023-06-17T20:52:44.156Z,4.65
2023-06-17T20:55:37.694Z,4.53
2023-06-17T20:58:23.039Z,4.63
2023-06-17T21:01:16.797Z,4.90
2023-06-17T21:04:02.109Z,5.30
2023-06-17T21:06:54.744Z,5.00
2023-06-17T21:09:41.059Z,4.70
2023-06-17T21:12:32.798Z,4.45
2023-06-17T21:15:18.028Z,4.57
2023-06-17T21:18:11.785Z,4.88
2023-06-17T21:21:04.818Z,4.28
2023-06-17T21:23:50.633Z,4.65
2023-06-17T21:26:42.818Z,4.28
2023-06-17T21:32:20.783Z,4.55
2023-06-17T21:35:06.277Z,4.20
2023-06-17T21:37:57.847Z,4.40
2023-06-17T21:40:43.701Z,4.57
2023-06-17T21:43:39.908Z,4.47
2023-06-17T21:46:34.210Z,4.55
2023-06-17T21:49:19.985Z,4.43
2023-06-17T21:52:12.865Z,4.07
2023-06-17T21:54:58.206Z,4.40
2023-06-17T21:57:50.830Z,4.22
2023-06-17T22:00:36.588Z,4.53
2023-06-17T22:03:28.944Z,4.88
2023-06-17T22:06:14.773Z,4.43
2023-06-17T22:09:06.845Z,4.20
2023-06-17T22:11:59.880Z,4.50
2023-06-17T22:14:51.880Z,4.38
2023-06-17T22:17:43.914Z,4.65
2023-06-17T22:20:30.009Z,4.70
2023-06-17T22:23:21.868Z,4.32
2023-06-17T22:26:07.345Z,4.50
2023-06-17T22:28:59.890Z,4.88
2023-06-17T22:31:45.556Z,4.63
2023-06-17T22:34:37.918Z,4.47
2023-06-17T22:40:16.876Z,4.95
2023-06-17T22:43:02.131Z,4.95
2023-06-17T22:45:55.181Z,4.80
2023-06-17T22:48:46.968Z,4.28
2023-06-17T22:51:38.928Z,4.65
2023-06-17T22:54:24.309Z,5.07
2023-06-17T22:57:15.998Z,4.30
2023-06-17T23:00:01.461Z,4.50
2023-06-17T23:02:54.071Z,4.85
2023-06-17T23:05:45.972Z,4.78
2023-06-17T23:08:44.969Z,4.60
2023-06-17T23:11:30.531Z,4.80
2023-06-17T23:14:22.928Z,4.55
2023-06-17T23:17:08.417Z,4.32
2023-06-17T23:20:02.967Z,4.32
2023-06-17T23:22:48.909Z,4.63
2023-06-17T23:25:40.995Z,4.72
2023-06-17T23:28:32.977Z,4.35
2023-06-17T23:31:18.422Z,4.53
2023-06-17T23:34:11.016Z,5.03
2023-06-17T23:36:56.192Z,4.90
2023-06-17T23:39:48.035Z,4.32
2023-06-17T23:42:33.381Z,4.38
2023-06-17T23:45:25.036Z,4.45
2023-06-17T23:48:10.645Z,4.30
2023-06-17T23:51:03.023Z,4.72
2023-06-17T23:53:49.141Z,4.28
2023-06-17T23:56:41.035Z,4.68
2023-06-17T23:59:26.788Z,4.80
